< Cyclone 201414 2014 Season Cyclone 201416 >
Cyclone 201415 (Ita)
General InformationTrack Information on Google MapsDetailed Wind InformationList of All Images || ResourceGoogle EarthGE AnimationAtom FeedGeoJSON
Detalied Best Track (Time Zone = UTC)
Year Month Day Hour Lat. Long. Pressure (hPa) Wind (kt) Class Image Chart
2014 4 2 00 -10.5 158.9 1003 0 0 Image --
2014 4 2 06 -10.3 159.0 1003 0 0 Image --
2014 4 2 12 -10.1 158.7 1003 0 0 Image --
2014 4 2 18 -10.2 158.6 1003 0 0 Image --
2014 4 3 00 -10.8 158.8 1003 25 2 Image --
2014 4 3 06 -10.9 158.8 1001 25 2 Image --
2014 4 3 12 -10.4 158.5 1002 25 2 Image --
2014 4 3 18 -10.3 158.3 1001 25 2 Image --
2014 4 4 00 -10.9 158.1 1000 25 2 Image --
2014 4 4 06 -11.3 157.0 999 25 2 Image --
2014 4 4 12 -11.3 156.7 999 25 2 Image --
2014 4 4 18 -11.5 156.5 998 30 2 Image --
2014 4 5 00 -11.7 156.4 997 35 3 Image --
2014 4 5 06 -11.8 156.2 997 35 3 Image --
2014 4 5 12 -11.9 155.8 998 35 3 Image --
2014 4 5 18 -12.1 155.1 998 30 2 Image --
2014 4 6 00 -12.1 154.1 998 30 2 Image --
2014 4 6 06 -12.1 154.0 998 30 2 Image --
2014 4 6 12 -12.1 153.8 998 25 2 Image --
2014 4 6 18 -12.2 153.6 998 30 2 Image --
2014 4 7 00 -12.1 153.5 997 35 3 Image --
2014 4 7 06 -12.0 153.6 991 45 3 Image --
2014 4 7 12 -11.8 153.5 990 50 4 Image --
2014 4 7 18 -11.7 153.2 988 50 4 Image --
2014 4 8 00 -11.6 152.9 990 50 4 Image --
2014 4 8 06 -11.4 152.7 985 55 4 Image --
2014 4 8 12 -11.3 152.4 987 55 4 Image --
2014 4 8 18 -11.3 152.0 981 60 4 Image --
2014 4 9 00 -11.2 151.0 985 60 4 Image --
2014 4 9 06 -11.2 150.4 978 65 5 Image --
2014 4 9 12 -11.3 149.5 981 65 5 Image --
2014 4 9 18 -11.5 148.7 975 70 5 Image --
2014 4 10 00 -12.0 147.9 960 90 5 Image --
2014 4 10 06 -12.5 147.1 937 110 5 Image --
2014 4 10 12 -12.7 146.4 927 120 5 Image --
2014 4 10 18 -13.2 146.0 922 120 5 Image --
2014 4 11 00 -13.6 145.7 935 110 5 Image --
2014 4 11 06 -14.3 145.4 948 95 5 Image --
2014 4 11 11 -14.8 145.3 951.5 90 5 Image --
2014 4 11 12 -14.9 145.3 955 80 5 Image --
2014 4 11 18 -15.4 145.0 975 55 4 Image --
2014 4 12 00 -15.8 145.0 989 45 3 Image --
2014 4 12 06 -16.4 145.3 991 35 3 Image --
2014 4 12 12 -17.1 145.8 996 30 2 Image --
2014 4 12 18 -18.0 146.1 995 30 2 Image --
2014 4 13 00 -19.0 147.0 995 30 2 Image --
2014 4 13 06 -20.0 148.4 989 30 2 Image --
2014 4 13 09 -20.3 149.2 993 35 3 Image --
2014 4 13 12 -20.7 150.2 993 45 3 Image --
2014 4 13 18 -21.7 151.5 995 40 3 Image --
2014 4 14 00 -22.6 153.2 995 40 3 Image --
2014 4 14 06 -23.5 155.0 994 45 3 Image --
2014 4 14 12 -24.5 156.8 994 50 4 Image --
2014 4 14 18 -25.2 157.9 995 45 3 Image --
2014 4 15 00 -25.8 158.8 997 35 3 Image --
2014 4 15 06 -26.1 159.9 998 25 2 Image --
2014 4 15 12 -26.3 160.6 998 0 0 Image --
< Cyclone 201414 2014 Season Cyclone 201416 >

Help